Strona główna
METAR-TAF:

METAR-TAF

Lotnisko :

Wyspy Magdaleny, Quebec, Kanada

Szerokość geograficzna: 47-25N, Długość geograficzna: 061-47W, wysokość: 10 m

Aktualna obserwacja pogody

Raport powstał 31 minut temu, godzina 23:00 UTC
Wiatr 4 kt od północno-północny wschód
Temperatura -2°C
Wilgotność 80%
Ciśnienie 1017 hPa
Widzialność: 24.1 km
Zachmurzenie całkowite na wysokości 1800 ft

METAR: CYGR 042300Z 03004KT 15SM OVC018 M02/M05 A3004 RMK SC8 SLP175

czas: 19:31 (23:31 UTC)

Prognoza

Raport powstał 3 godziny i 53 minut temu, godzina 19:38 UTC
Prognoza ważna od 04 godzina 20 UTC do 05 godzina 02 UTC
Wiatr 10 kt od północny wschód
Widzialność: 10 km
Zachmurzenie całkowite na wysokości 2000 ft
Przejściowo
od 04 godzina 20 UTC do 05 godzina 02 UTC
Zachmurzenie całkowite na wysokości 2500 ft

TAF: CYGR 041938Z 0420/0502 05010KT P6SM OVC020 TEMPO 0420/0502 OVC025 RMK NXT FCST WILL BE ISSUED AT 051045Z

Obserwacja i prognoza pogody dla ponad 4000 lotnisk (raport METAR i TAF).

Dostępne stacje oznaczono żółtymi i czerwonymi punktami na mapie.

Najedź kursorem aby zobaczyć nazwę stacji.

Kliknij aby zobaczyć obserwacje i prognozy pogody.

Aby zmienić mapę: kliknij na zielony przycisk z czarnym krzyżykiem, aby powiększyć; na zielony przycisk z myślnikiem, aby pomniejszyć; na zielone strzałki, aby przejść do map sąsiednich.


METAR-TAF: